»·PEaware :: JNY60 KPDX-KBOI

JNY60 :: KPDX-KBOI

FLIGHT INFORMATION

Flight Status: Arrived
Operator: Unknown
More flights by this operator :: More flights under this callsign
Pilot: Max W. (2591)
Aircraft: AIRBUS A319
(A319)
More flights by this aircraft type
Origin: KPDX Portland Intl
United States
Destination: KBOI Boise Air Terminal/Gowen
United States
More flights between these airports :: More routes between these airports
Route: WHAMY4 IMB HOSTS PARMO3
File this flight plan on PilotEdge
Remarks:
Altitude:
(Current/Filed)
33,000ft
Speed:
(Current/Filed)
450kts
Departed: 03-Oct-19 10:24 AM
Arrived: 03-Oct-19 11:14 AM
Distance/Time
Traveled:
298nm/0:50
Distance/Time
To Go:
Arrived

Flight Plot

Page will automatically refresh every two minutes.

Flight plan parsing failed; only flown route is shown


Map Options




Map Legend


Flown Route
Filed Route
Departure Airport
Arrival Airport
Navaid (VOR, NDB)
Fix

Horizontal Profiles

Position Reports

Time Latitude Longitude Heading Altitude Ground
Speed
03-Oct-19 10:15 45.587209 -122.582280 209 38ft 0kts
03-Oct-19 10:16 45.587209 -122.582280 209 38ft 0kts
03-Oct-19 10:17 45.587209 -122.582280 209 38ft 0kts
03-Oct-19 10:18 45.587209 -122.582280 209 38ft 0kts
03-Oct-19 10:19 45.587208 -122.582282 215 38ft 0kts
03-Oct-19 10:20 45.590580 -122.588045 301 38ft 24kts
03-Oct-19 10:21 45.593599 -122.595734 298 38ft 16kts
03-Oct-19 10:22 45.594394 -122.597426 350 38ft 7kts
03-Oct-19 10:23 45.589046 -122.580735 118 112ft 157kts
03-Oct-19 10:24 45.576027 -122.516583 105 3598ft 200kts
03-Oct-19 10:25 45.559048 -122.425052 105 7230ft 272kts
03-Oct-19 10:26 45.533474 -122.320196 134 11155ft 308kts
03-Oct-19 10:27 45.458658 -122.237271 140 14073ft 370kts
03-Oct-19 10:28 45.380168 -122.137603 141 17663ft 389kts
03-Oct-19 10:29 45.297804 -122.033303 142 20780ft 406kts
03-Oct-19 10:30 45.233148 -121.898277 113 23484ft 434kts
03-Oct-19 10:31 45.191816 -121.735113 113 25808ft 449kts
03-Oct-19 10:32 45.148344 -121.566456 113 27863ft 462kts
03-Oct-19 10:33 45.103518 -121.394083 114 29824ft 469kts
03-Oct-19 10:34 45.060288 -121.228421 115 32176ft 459kts
03-Oct-19 10:35 45.016018 -121.060103 117 33109ft 457kts
03-Oct-19 10:36 44.971300 -120.891887 119 33112ft 456kts
03-Oct-19 10:37 44.926224 -120.724071 119 33111ft 458kts
03-Oct-19 10:38 44.882556 -120.562710 120 33107ft 458kts
03-Oct-19 10:39 44.836676 -120.394732 119 33106ft 457kts
03-Oct-19 10:40 44.792661 -120.233176 120 33103ft 457kts
03-Oct-19 10:41 44.746904 -120.066635 120 33096ft 457kts
03-Oct-19 10:42 44.700733 -119.899819 120 33087ft 457kts
03-Oct-19 10:43 44.654146 -119.732733 120 33083ft 457kts
03-Oct-19 10:44 44.606396 -119.567843 121 33084ft 456kts
03-Oct-19 10:45 44.558008 -119.403109 121 33083ft 456kts
03-Oct-19 10:46 44.511442 -119.244766 121 33083ft 454kts
03-Oct-19 10:47 44.462853 -119.080835 121 33084ft 454kts
03-Oct-19 10:48 44.414264 -118.917772 123 32456ft 451kts
03-Oct-19 10:49 44.365095 -118.754503 123 30967ft 455kts
03-Oct-19 10:50 44.316036 -118.592587 122 29148ft 446kts
03-Oct-19 10:51 44.268238 -118.435426 122 27137ft 431kts
03-Oct-19 10:52 44.225745 -118.296703 122 25279ft 417kts
03-Oct-19 10:53 44.180731 -118.150197 121 23269ft 403kts
03-Oct-19 10:54 44.137044 -118.009120 120 21270ft 390kts
03-Oct-19 10:56 44.094513 -117.872518 119 19266ft 378kts
03-Oct-19 10:57 44.053283 -117.740764 118 17269ft 367kts
03-Oct-19 10:58 44.012944 -117.612542 117 14883ft 358kts
03-Oct-19 10:59 43.973570 -117.487903 115 12378ft 349kts
03-Oct-19 11:00 43.935088 -117.366332 114 10047ft 337kts
03-Oct-19 11:01 43.899083 -117.252835 115 10033ft 343kts
03-Oct-19 11:02 43.862188 -117.137969 115 9963ft 305kts
03-Oct-19 11:03 43.828995 -117.035035 115 8630ft 288kts
03-Oct-19 11:04 43.797086 -116.936739 114 8035ft 269kts
03-Oct-19 11:05 43.766609 -116.842504 114 8028ft 266kts
03-Oct-19 11:06 43.736577 -116.748921 114 8022ft 266kts
03-Oct-19 11:07 43.706636 -116.655747 114 7677ft 262kts
03-Oct-19 11:08 43.677811 -116.563801 110 6062ft 260kts
03-Oct-19 11:09 43.650135 -116.476067 113 5054ft 240kts
03-Oct-19 11:10 43.622173 -116.394530 114 4992ft 211kts
03-Oct-19 11:11 43.599400 -116.328219 115 4193ft 182kts
03-Oct-19 11:12 43.581325 -116.275514 115 3334ft 129kts
03-Oct-19 11:13 43.566277 -116.231541 116 2842ft 99kts
03-Oct-19 11:14 43.564210 -116.229484 293 2845ft 31kts

Navigation Log

Ident Type
Flight plan parsing failed, navigation log unavailable